createdAt,value
2022-12-07T01:06:38.505Z,-8.43
2022-12-07T01:09:11.304Z,-8.23
2022-12-07T01:11:44.453Z,-8.19
2022-12-07T01:14:17.184Z,-8.18
2022-12-07T01:16:50.088Z,-8.14
2022-12-07T01:19:23.251Z,-8.10
2022-12-07T01:21:55.861Z,-8.04
2022-12-07T01:24:29.476Z,-7.95
2022-12-07T01:27:03.103Z,-7.95
2022-12-07T01:29:36.934Z,-7.92
2022-12-07T01:32:09.808Z,-7.91
2022-12-07T01:34:43.246Z,-7.90
2022-12-07T01:37:16.989Z,-7.89
2022-12-07T01:39:54.446Z,-7.89
2022-12-07T01:42:28.296Z,-7.89
2022-12-07T01:45:38.622Z,-7.88
2022-12-07T01:48:15.290Z,-7.87
2022-12-07T01:50:51.587Z,-7.89
2022-12-07T01:53:28.225Z,-7.92
2022-12-07T01:56:02.635Z,-7.92
2022-12-07T01:58:36.615Z,-7.92
2022-12-07T02:01:11.894Z,-7.92
2022-12-07T02:03:46.817Z,-7.93
2022-12-07T02:06:24.742Z,-7.94
2022-12-07T02:08:58.891Z,-7.95
2022-12-07T02:11:31.649Z,-7.96
2022-12-07T02:14:05.230Z,-7.95
2022-12-07T02:16:49.576Z,-7.96
2022-12-07T02:19:36.504Z,-7.96
2022-12-07T02:22:34.227Z,-7.97
2022-12-07T02:25:45.704Z,-7.97
2022-12-07T02:28:38.388Z,-7.96
2022-12-07T02:31:16.666Z,-7.97
2022-12-07T02:34:06.939Z,-7.98
2022-12-07T02:36:51.172Z,-8.00
2022-12-07T02:39:38.227Z,-8.00
2022-12-07T02:42:16.625Z,-8.01
2022-12-07T02:44:50.806Z,-8.01
2022-12-07T02:47:25.130Z,-8.02
2022-12-07T02:49:59.164Z,-8.01
2022-12-07T02:52:32.886Z,-8.02
2022-12-07T02:55:07.699Z,-8.02
2022-12-07T02:58:01.004Z,-8.02
2022-12-07T03:00:39.752Z,-8.01
2022-12-07T03:03:15.469Z,-8.00
2022-12-07T03:06:11.990Z,-8.00
2022-12-07T03:08:59.367Z,-7.99
2022-12-07T03:11:41.243Z,-7.95
2022-12-07T03:14:20.030Z,-7.92
2022-12-07T03:17:06.937Z,-7.91
2022-12-07T03:19:41.424Z,-7.92
2022-12-07T03:22:16.057Z,-7.92
2022-12-07T03:25:05.727Z,-7.93
2022-12-07T03:27:53.914Z,-7.93
2022-12-07T03:30:54.001Z,-7.95
2022-12-07T03:33:35.459Z,-7.94
2022-12-07T03:36:25.553Z,-7.94
2022-12-07T03:39:35.013Z,-7.95
2022-12-07T03:42:10.184Z,-7.96
2022-12-07T03:44:45.028Z,-8.03
2022-12-07T03:47:31.882Z,-8.03
2022-12-07T03:50:19.217Z,-7.99
2022-12-07T03:53:06.944Z,-7.97
2022-12-07T03:55:44.290Z,-7.96
2022-12-07T03:58:23.639Z,-8.00
2022-12-07T04:00:57.390Z,-7.96
2022-12-07T04:03:31.056Z,-7.93
2022-12-07T04:06:05.188Z,-7.93
2022-12-07T04:08:39.662Z,-7.94
2022-12-07T04:11:13.716Z,-7.93
2022-12-07T04:14:06.312Z,-7.92
2022-12-07T04:16:44.505Z,-7.88
2022-12-07T04:19:16.053Z,-7.87
2022-12-07T04:21:50.275Z,-7.88
2022-12-07T04:24:24.262Z,-7.87
2022-12-07T04:26:58.153Z,-7.87
2022-12-07T04:29:31.849Z,-7.86
2022-12-07T04:32:06.109Z,-7.88
2022-12-07T04:34:40.185Z,-7.88
2022-12-07T04:37:14.039Z,-7.86
2022-12-07T04:39:47.708Z,-7.87
2022-12-07T04:42:21.365Z,-7.87
2022-12-07T04:44:54.314Z,-7.85
2022-12-07T04:47:27.869Z,-7.84
2022-12-07T04:50:01.865Z,-7.85
2022-12-07T04:52:36.524Z,-7.85
2022-12-07T04:55:10.493Z,-7.88
2022-12-07T04:57:44.349Z,-7.86
2022-12-07T05:00:17.431Z,-7.86
2022-12-07T05:02:51.215Z,-7.86
2022-12-07T05:05:25.628Z,-7.85
2022-12-07T05:07:59.767Z,-7.83
2022-12-07T05:10:34.439Z,-7.80
2022-12-07T05:13:07.133Z,-7.77
2022-12-07T05:15:40.902Z,-7.76
2022-12-07T05:18:15.279Z,-7.76
2022-12-07T05:20:49.447Z,-7.74
2022-12-07T05:23:23.303Z,-7.71
2022-12-07T05:25:57.415Z,-7.68
2022-12-07T05:28:31.301Z,-7.63
2022-12-07T05:31:04.395Z,-7.55
2022-12-07T05:33:39.404Z,-7.49
2022-12-07T05:36:13.319Z,-7.49
2022-12-07T05:38:46.193Z,-7.44
2022-12-07T05:41:39.209Z,-7.40
2022-12-07T05:44:13.007Z,-7.40
2022-12-07T05:47:54.898Z,-7.31
2022-12-07T05:50:29.104Z,-7.33
2022-12-07T05:53:08.326Z,-7.30
2022-12-07T05:55:41.507Z,-7.23
2022-12-07T05:58:31.975Z,-7.17
2022-12-07T06:01:04.965Z,-7.13
2022-12-07T06:03:38.200Z,-7.04
2022-12-07T06:06:11.337Z,-6.95
2022-12-07T06:08:44.118Z,-6.86
2022-12-07T06:11:34.704Z,-6.79
2022-12-07T06:14:07.746Z,-6.67
2022-12-07T06:16:40.786Z,-6.61
2022-12-07T06:19:13.828Z,-6.54
2022-12-07T06:21:47.754Z,-6.47
2022-12-07T06:24:21.686Z,-6.45
2022-12-07T06:26:54.584Z,-6.41
2022-12-07T06:29:27.759Z,-6.32
2022-12-07T06:32:00.856Z,-6.37
2022-12-07T06:34:34.173Z,-6.36
2022-12-07T06:37:14.737Z,-6.34
2022-12-07T06:39:47.476Z,-6.34
2022-12-07T06:42:20.127Z,-6.32
2022-12-07T06:44:53.093Z,-6.27
2022-12-07T06:47:40.134Z,-6.16
2022-12-07T06:50:01.131Z,-6.07
2022-12-07T06:52:34.741Z,-5.99
2022-12-07T06:55:08.371Z,-5.92
2022-12-07T06:57:40.478Z,-5.84
2022-12-07T07:00:21.510Z,-5.77
2022-12-07T07:02:49.553Z,-5.75
2022-12-07T07:05:25.526Z,-5.67
2022-12-07T07:08:21.525Z,-5.58
2022-12-07T07:10:32.889Z,-5.50
2022-12-07T07:13:05.835Z,-5.39
2022-12-07T07:15:40.143Z,-5.34
2022-12-07T07:18:13.674Z,-5.29
2022-12-07T07:20:46.699Z,-5.30
2022-12-07T07:23:20.099Z,-5.30
2022-12-07T07:25:53.907Z,-5.28
2022-12-07T07:28:26.835Z,-5.27
2022-12-07T07:30:59.698Z,-5.31
2022-12-07T07:33:32.816Z,-5.31
2022-12-07T07:36:06.231Z,-5.33
2022-12-07T07:38:39.295Z,-5.33
2022-12-07T07:41:12.630Z,-5.29
2022-12-07T07:43:45.625Z,-5.25
2022-12-07T07:46:18.578Z,-5.21
2022-12-07T07:48:51.967Z,-5.17
2022-12-07T07:51:25.071Z,-5.14
2022-12-07T07:53:58.254Z,-5.11
2022-12-07T07:56:31.199Z,-5.08
2022-12-07T07:59:04.033Z,-5.06
2022-12-07T08:01:37.491Z,-5.04
2022-12-07T08:04:10.623Z,-5.01
2022-12-07T08:06:44.236Z,-4.97
2022-12-07T08:09:17.034Z,-4.95
2022-12-07T08:11:49.997Z,-5.02
2022-12-07T08:14:22.760Z,-5.05
2022-12-07T08:16:56.247Z,-5.09
2022-12-07T08:19:29.775Z,-5.05
2022-12-07T08:22:02.787Z,-5.05
2022-12-07T08:24:39.491Z,-5.07
2022-12-07T08:27:12.237Z,-5.07
2022-12-07T08:29:44.950Z,-5.01
2022-12-07T08:32:18.284Z,-4.94
2022-12-07T08:34:51.224Z,-4.91
2022-12-07T08:37:24.315Z,-4.84
2022-12-07T08:39:57.704Z,-4.75
2022-12-07T08:42:36.126Z,-4.67
2022-12-07T08:45:12.769Z,-4.66
2022-12-07T08:47:53.137Z,-4.70
2022-12-07T08:50:28.385Z,-4.69
2022-12-07T08:53:02.366Z,-4.62
2022-12-07T08:55:37.011Z,-4.55
2022-12-07T08:58:10.007Z,-4.56
2022-12-07T09:00:42.986Z,-4.54
2022-12-07T09:03:15.951Z,-4.53
2022-12-07T09:05:49.344Z,-4.54
2022-12-07T09:08:24.064Z,-4.57
2022-12-07T09:10:57.017Z,-4.61
2022-12-07T09:13:29.896Z,-4.63
2022-12-07T09:16:02.721Z,-4.65
2022-12-07T09:18:35.963Z,-4.65
2022-12-07T09:21:09.051Z,-4.70
2022-12-07T09:23:43.954Z,-4.73
2022-12-07T09:26:16.838Z,-4.72
2022-12-07T09:28:49.902Z,-4.69
2022-12-07T09:31:24.800Z,-4.70
2022-12-07T09:34:02.196Z,-4.70
2022-12-07T09:36:35.577Z,-4.75
2022-12-07T09:39:08.604Z,-4.75
2022-12-07T09:41:44.713Z,-4.76
2022-12-07T09:44:24.876Z,-4.75
2022-12-07T09:46:57.984Z,-4.79
2022-12-07T09:49:33.595Z,-4.74
2022-12-07T09:52:22.458Z,-4.68
2022-12-07T09:54:55.382Z,-4.66
2022-12-07T09:57:36.176Z,-4.62
2022-12-07T10:00:24.216Z,-4.56
2022-12-07T10:03:02.736Z,-4.51
2022-12-07T10:05:43.505Z,-4.49
2022-12-07T10:08:20.462Z,-4.48
2022-12-07T10:10:58.391Z,-4.45
2022-12-07T10:13:50.259Z,-4.43
2022-12-07T10:16:29.189Z,-4.39
2022-12-07T10:19:23.316Z,-4.38
2022-12-07T10:22:18.830Z,-4.41
2022-12-07T10:24:51.967Z,-4.45
2022-12-07T10:27:34.059Z,-4.44
2022-12-07T10:30:12.535Z,-4.40
2022-12-07T10:32:45.362Z,-4.37
2022-12-07T10:35:31.410Z,-4.32
2022-12-07T10:38:07.896Z,-4.25
2022-12-07T10:40:46.324Z,-4.21
2022-12-07T10:43:21.495Z,-4.25
2022-12-07T10:46:31.969Z,-4.24
2022-12-07T10:49:27.393Z,-4.26
2022-12-07T10:52:25.794Z,-4.29
2022-12-07T10:55:33.607Z,-4.31
2022-12-07T10:58:42.832Z,-4.32
2022-12-07T11:01:50.103Z,-4.31
2022-12-07T11:04:56.457Z,-4.27
2022-12-07T11:07:45.608Z,-4.31
2022-12-07T11:10:28.751Z,-4.36
2022-12-07T11:13:41.178Z,-4.36
2022-12-07T11:16:30.694Z,-4.41
2022-12-07T11:19:53.530Z,-4.48
2022-12-07T11:22:58.750Z,-4.54
2022-12-07T11:25:48.331Z,-4.54
2022-12-07T11:28:49.522Z,-4.55
2022-12-07T11:31:49.137Z,-4.47
2022-12-07T11:35:02.830Z,-4.39
2022-12-07T11:40:25.212Z,-4.38
2022-12-07T11:43:26.998Z,-4.38
2022-12-07T11:46:06.671Z,-4.36
2022-12-07T11:48:46.006Z,-4.30
2022-12-07T11:51:22.316Z,-4.34
2022-12-07T11:54:03.016Z,-4.35
2022-12-07T11:56:38.279Z,-4.34
2022-12-07T11:59:30.140Z,-4.34
2022-12-07T12:02:28.482Z,-4.32
2022-12-07T12:05:22.997Z,-4.33
2022-12-07T12:11:15.743Z,-4.35
2022-12-07T12:14:34.047Z,-4.31
2022-12-07T12:17:02.978Z,-4.30
2022-12-07T12:20:04.566Z,-4.31
2022-12-07T12:22:44.915Z,-4.31
2022-12-07T12:25:29.381Z,-4.39
2022-12-07T12:28:01.676Z,-4.39
2022-12-07T12:30:40.490Z,-4.38
2022-12-07T12:33:33.202Z,-4.34
2022-12-07T12:36:44.586Z,-4.31
2022-12-07T12:39:20.397Z,-4.28
2022-12-07T12:41:58.549Z,-4.29
2022-12-07T12:44:41.371Z,-4.37
2022-12-07T12:47:43.875Z,-4.39
2022-12-07T12:50:23.800Z,-4.37
2022-12-07T12:53:19.991Z,-4.33
2022-12-07T12:56:29.436Z,-4.33
2022-12-07T12:59:27.792Z,-4.33
2022-12-07T13:02:34.585Z,-4.38
2022-12-07T13:05:12.322Z,-4.41
2022-12-07T13:07:58.827Z,-4.45
2022-12-07T13:10:42.903Z,-4.50
2022-12-07T13:13:20.929Z,-4.56
2022-12-07T13:15:56.884Z,-4.58
2022-12-07T13:18:34.654Z,-4.61
2022-12-07T13:21:17.377Z,-4.63
2022-12-07T13:24:02.574Z,-4.65
2022-12-07T13:26:40.723Z,-4.65
2022-12-07T13:29:21.351Z,-4.64
2022-12-07T13:32:00.084Z,-4.60
2022-12-07T13:34:45.035Z,-4.57
2022-12-07T13:37:38.543Z,-4.58
2022-12-07T13:40:25.716Z,-4.57
2022-12-07T13:43:05.102Z,-4.57
2022-12-07T13:45:51.397Z,-4.57
2022-12-07T13:48:46.614Z,-4.53
2022-12-07T13:51:30.140Z,-4.53
2022-12-07T13:54:06.376Z,-4.53
2022-12-07T13:56:40.917Z,-4.55
2022-12-07T13:59:26.135Z,-4.58
2022-12-07T14:01:59.156Z,-4.61
2022-12-07T14:04:35.732Z,-4.60
2022-12-07T14:07:30.701Z,-4.62
2022-12-07T14:10:07.100Z,-4.62
2022-12-07T14:12:40.591Z,-4.62
2022-12-07T14:15:26.207Z,-4.63
2022-12-07T14:18:00.134Z,-4.62
2022-12-07T14:20:42.159Z,-4.61
2022-12-07T14:23:28.285Z,-4.61
2022-12-07T14:26:16.642Z,-4.61
2022-12-07T14:28:50.306Z,-4.63
2022-12-07T14:31:30.717Z,-4.60
2022-12-07T14:34:04.540Z,-4.56
2022-12-07T14:36:38.869Z,-4.54
2022-12-07T14:39:13.481Z,-4.54
2022-12-07T14:41:54.929Z,-4.53
2022-12-07T14:44:32.423Z,-4.55
2022-12-07T14:49:37.588Z,-4.55
2022-12-07T14:54:58.796Z,-4.54
2022-12-07T14:57:31.885Z,-4.50
2022-12-07T15:00:05.999Z,-4.51
2022-12-07T15:02:39.746Z,-4.50
2022-12-07T15:05:16.345Z,-4.48
2022-12-07T15:07:49.475Z,-4.46
2022-12-07T15:10:33.726Z,-4.43
2022-12-07T15:13:25.275Z,-4.40
2022-12-07T15:15:58.804Z,-4.37
2022-12-07T15:18:31.939Z,-4.32
2022-12-07T15:21:05.081Z,-4.30
2022-12-07T15:23:38.007Z,-4.17
2022-12-07T15:26:12.825Z,-4.15
2022-12-07T15:28:45.883Z,-4.11
2022-12-07T15:31:54.185Z,-4.11
2022-12-07T15:33:55.584Z,-4.10
2022-12-07T15:36:32.435Z,-4.10
2022-12-07T15:39:14.048Z,-4.07
2022-12-07T15:41:40.519Z,-4.08
2022-12-07T15:44:34.683Z,-4.07
2022-12-07T15:47:08.418Z,-4.04
2022-12-07T15:49:41.380Z,-4.04
2022-12-07T15:52:14.456Z,-4.05
2022-12-07T15:54:48.755Z,-4.04
2022-12-07T15:57:25.316Z,-4.05
2022-12-07T15:59:55.825Z,-3.98
2022-12-07T16:02:29.033Z,-3.98
2022-12-07T16:05:02.543Z,-3.93
2022-12-07T16:07:35.404Z,-3.90
2022-12-07T16:10:09.880Z,-3.89
2022-12-07T16:12:42.988Z,-3.88
2022-12-07T16:15:18.897Z,-3.86
2022-12-07T16:17:51.231Z,-3.82
2022-12-07T16:20:24.228Z,-3.78
2022-12-07T16:22:57.302Z,-3.76
2022-12-07T16:25:31.641Z,-3.72
2022-12-07T16:28:04.760Z,-3.69
2022-12-07T16:30:40.608Z,-3.68
2022-12-07T16:33:15.749Z,-3.67
2022-12-07T16:35:49.108Z,-3.66
2022-12-07T16:38:22.118Z,-3.65
2022-12-07T16:40:56.836Z,-3.65
2022-12-07T16:43:30.559Z,-3.65
2022-12-07T16:46:05.735Z,-3.65
2022-12-07T16:48:41.874Z,-3.66
2022-12-07T16:51:16.417Z,-3.69
2022-12-07T16:53:49.790Z,-3.71
2022-12-07T16:56:23.389Z,-3.69
2022-12-07T16:58:56.503Z,-3.65
2022-12-07T17:01:30.718Z,-3.60
2022-12-07T17:04:03.009Z,-3.57
2022-12-07T17:06:36.624Z,-3.57
2022-12-07T17:09:13.222Z,-3.59
2022-12-07T17:11:47.813Z,-3.62
2022-12-07T17:14:39.240Z,-3.64
2022-12-07T17:17:14.043Z,-3.70
2022-12-07T17:19:47.620Z,-3.76
2022-12-07T17:22:20.696Z,-3.76
2022-12-07T17:24:53.931Z,-3.75
2022-12-07T17:27:27.261Z,-3.80
2022-12-07T17:30:00.623Z,-3.82
2022-12-07T17:32:34.571Z,-3.82
2022-12-07T17:35:09.233Z,-3.81
2022-12-07T17:37:50.599Z,-3.78
2022-12-07T17:40:21.004Z,-3.75
2022-12-07T17:42:54.016Z,-3.72
2022-12-07T17:45:31.683Z,-3.70
2022-12-07T17:48:07.871Z,-3.64
2022-12-07T17:51:00.316Z,-3.59
2022-12-07T17:53:33.678Z,-3.54
2022-12-07T17:57:39.105Z,-3.49
2022-12-07T18:31:25.155Z,-3.52
2022-12-07T18:34:00.296Z,-3.53
2022-12-07T18:36:33.764Z,-3.54
2022-12-07T18:39:08.068Z,-3.54
2022-12-07T18:41:42.552Z,-3.53
2022-12-07T18:44:17.178Z,-3.54
2022-12-07T18:46:50.339Z,-3.57
2022-12-07T18:49:23.121Z,-3.58
2022-12-07T18:51:56.196Z,-3.52
2022-12-07T18:54:29.298Z,-3.51
2022-12-07T18:57:02.256Z,-3.51
2022-12-07T18:59:48.359Z,-3.52
2022-12-07T19:02:21.352Z,-3.55
2022-12-07T19:04:54.326Z,-3.55
2022-12-07T19:07:27.330Z,-3.52
2022-12-07T19:10:02.314Z,-3.52
2022-12-07T19:12:36.350Z,-3.50
2022-12-07T19:15:12.004Z,-3.49
2022-12-07T19:17:45.627Z,-3.45
2022-12-07T19:20:19.724Z,-3.43
2022-12-07T19:22:53.153Z,-3.42
2022-12-07T19:25:26.076Z,-3.41
2022-12-07T19:27:59.047Z,-3.41
2022-12-07T19:30:31.932Z,-3.39
2022-12-07T19:33:06.437Z,-3.40
2022-12-07T19:35:40.587Z,-3.41
2022-12-07T19:38:13.515Z,-3.41
2022-12-07T19:40:46.757Z,-3.40
2022-12-07T19:43:19.771Z,-3.40
2022-12-07T19:45:53.056Z,-3.38
2022-12-07T19:48:26.236Z,-3.36
2022-12-07T19:51:07.226Z,-3.36
2022-12-07T19:53:40.499Z,-3.36
2022-12-07T19:56:20.063Z,-3.34
2022-12-07T19:58:52.915Z,-3.35
2022-12-07T20:01:26.041Z,-3.36
2022-12-07T20:04:01.128Z,-3.34
2022-12-07T20:06:34.501Z,-3.35
2022-12-07T20:09:08.124Z,-3.39
2022-12-07T20:11:59.288Z,-3.40
2022-12-07T20:14:33.033Z,-3.39
2022-12-07T20:17:06.710Z,-3.36
2022-12-07T20:19:40.977Z,-3.38
2022-12-07T20:22:12.801Z,-3.39
2022-12-07T20:24:45.572Z,-3.38
2022-12-07T20:27:18.394Z,-3.39
2022-12-07T20:29:51.679Z,-3.38
2022-12-07T20:32:24.734Z,-3.38
2022-12-07T20:34:57.783Z,-3.37
2022-12-07T20:37:30.800Z,-3.37
2022-12-07T20:40:03.710Z,-3.35
2022-12-07T20:42:39.674Z,-3.34
2022-12-07T20:45:12.764Z,-3.38
2022-12-07T20:47:46.099Z,-3.37
2022-12-07T20:50:19.149Z,-3.39
2022-12-07T20:52:54.936Z,-3.41
2022-12-07T20:55:27.010Z,-3.39
2022-12-07T20:57:59.768Z,-3.34
2022-12-07T21:00:32.808Z,-3.35
2022-12-07T21:03:06.847Z,-3.33
2022-12-07T21:05:39.718Z,-3.33
2022-12-07T21:08:12.721Z,-3.31
2022-12-07T21:10:46.225Z,-3.32
2022-12-07T21:13:18.891Z,-3.31
2022-12-07T21:15:51.809Z,-3.31
2022-12-07T21:18:24.832Z,-3.32
2022-12-07T21:20:57.525Z,-3.35
2022-12-07T21:23:30.564Z,-3.33
2022-12-07T21:26:05.522Z,-3.34
2022-12-07T21:28:38.518Z,-3.35
2022-12-07T21:31:13.528Z,-3.36
2022-12-07T21:33:47.592Z,-3.36
2022-12-07T21:36:26.825Z,-3.39
2022-12-07T21:39:00.503Z,-3.38
2022-12-07T21:41:35.905Z,-3.37
2022-12-07T21:44:11.642Z,-3.36
2022-12-07T21:46:45.376Z,-3.33
2022-12-07T21:49:18.352Z,-3.28
2022-12-07T21:51:51.161Z,-3.26
2022-12-07T21:54:26.008Z,-3.27
2022-12-07T21:56:58.565Z,-3.27
2022-12-07T21:59:31.462Z,-3.27
2022-12-07T22:02:04.461Z,-3.31
2022-12-07T22:04:37.308Z,-3.29
2022-12-07T22:07:11.331Z,-3.24
2022-12-07T22:09:44.470Z,-3.21
2022-12-07T22:12:18.024Z,-3.21
2022-12-07T22:15:10.572Z,-3.21
2022-12-07T22:17:43.523Z,-3.17
2022-12-07T22:20:17.574Z,-3.14
2022-12-07T22:22:51.170Z,-3.15
2022-12-07T22:25:24.470Z,-3.19
2022-12-07T22:27:57.366Z,-3.27
2022-12-07T22:30:30.190Z,-3.33
2022-12-07T22:33:03.309Z,-3.35
2022-12-07T22:35:36.373Z,-3.36
2022-12-07T22:38:14.403Z,-3.36
2022-12-07T22:40:46.220Z,-3.35
2022-12-07T22:43:19.339Z,-3.33
2022-12-07T22:46:02.610Z,-3.33
2022-12-07T22:48:35.734Z,-3.34
2022-12-07T22:51:08.675Z,-3.33
2022-12-07T22:53:41.553Z,-3.35
2022-12-07T22:56:15.984Z,-3.36
2022-12-07T22:58:49.356Z,-3.36
2022-12-07T23:01:24.175Z,-3.35
2022-12-07T23:03:57.634Z,-3.40
2022-12-07T23:06:33.706Z,-3.40
2022-12-07T23:09:11.120Z,-3.39
2022-12-07T23:12:02.910Z,-3.44
2022-12-07T23:14:38.899Z,-3.45
2022-12-07T23:17:11.743Z,-3.40
2022-12-07T23:19:44.570Z,-3.41
2022-12-07T23:22:17.566Z,-3.48
2022-12-07T23:24:50.315Z,-3.47
2022-12-07T23:27:23.390Z,-3.44
2022-12-07T23:29:56.298Z,-3.41
2022-12-07T23:32:29.201Z,-3.39
2022-12-07T23:35:02.251Z,-3.37
2022-12-07T23:37:35.566Z,-3.39
2022-12-07T23:40:10.160Z,-3.40
2022-12-07T23:42:43.141Z,-3.38
2022-12-07T23:45:16.264Z,-3.39
2022-12-07T23:47:51.477Z,-3.39
2022-12-07T23:50:24.530Z,-3.35
2022-12-07T23:52:58.045Z,-3.36
2022-12-07T23:55:30.973Z,-3.36
2022-12-07T23:58:03.787Z,-3.34
